Chatham, MA

10:17 PM EDT on July 01, 2015 (GMT -0400)
Chatham Wind and Time | | Change Station
CLOSE
Current Station
Personal Weather Station
Location: West Chatham, MA
Elevation: 50 ft
Nearby Weather Stations

Elev 50 ft 41.68 °N, 69.98 °W | Updated 2 minutes ago

Overcast
Overcast
69.9 °F
Feels Like 69.9 °F
N
5.0
Wind Variable Wind from WSW
Gusts 16.0 mph

Today
High -- | Low -- °F
--% Chance of Precip.
Yesterday
High -- | Low -- °F
Precip. -- in
5:09 AM 8:18 PM
Full, 100% visible
Pressure 29.82 in
Visibility 7.0 miles
Clouds Overcast 500 ft
Dew Point 70 °F
Humidity 100%
Rainfall 1.46 in
Snow Depth Not available.
UV 16.0 out of 12
Pollen 1.40 out of 12
Air Quality Not available.
Flu Activity Not available.
METAR KCQX 020152Z AUTO 23008KT 7SM OVC005 19/19 A2982 RMK AO2 SLP098 T01940194

More Conditions Fewer Conditions

Pressure 29.82 in
Visibility 7.0 miles
Clouds Overcast 500 ft
Dew Point 70 °F
Humidity 100%
Rainfall 1.46 in
Snow Depth Not available.
UV 16.0 out of 12
Pollen 1.40 out of 12
Air Quality Not available.
Flu Activity Not available.
METAR KCQX 020152Z AUTO 23008KT 7SM OVC005 19/19 A2982 RMK AO2 SLP098 T01940194

More Conditions Fewer Conditions

10-Day Weather Forecast

×

Almanac

Astronomy

Jul. 01, 2015 Rise Set
Actual Time
Civil Twilight
Nautical Twilight
Astronomical Twilight
Moon
Length of Visible Light
Length of Day
Tomorrow will be .
, % of the Moon is Illuminated

Today's Extremes

State Highs State Lows

Community

WunderPhotos

Upload Photos

1,834,376 photos uploaded!

WunderBlogs® & News

Nearby

Air Quality

  Air Quality AQ Index Pollutant
Not available.

Snow Depth

Station Depth Elevation

Earthquake Activity

City Distance Mag. Time & Date
Minimum magnitude displayed is 2.5.

Coastal Water Temperatures

Place Temperature

Stations

Nearby Weather Stations

Station Location Temp. Windchill Dew Point Humidity Wind Precip. Elev Updated Type